Time;durP1;ratioP1;P1;durP2;ratioP2;P2;SDS_P1;SDS_P2;PMS_P1;PMS_P2;Temp;Humidity;BMP_temperature;BMP_pressure;BME280_temperature;BME280_humidity;BME280_pressure;Samples;Min_cycle;Max_cycle;Signal;HPM_P1;HPM_P2
2024/04/01 00:00:33;;;;;;;;;;;;;;;19.94;51.60;99230.75;2058629;28;6304;-77
2024/04/01 00:01:34;;;;;;;;;;;;;;;19.93;51.60;99238.63;2058546;28;2235;-77
2024/04/01 00:02:34;;;;;;;;;;;;;;;19.92;51.76;99219.94;2056817;28;1661;-77
2024/04/01 00:03:34;;;;;;;;;;;;;;;19.93;51.64;99227.16;2059714;28;2142;-77
2024/04/01 00:04:35;;;;;;;;;;;;;;;19.93;51.68;99226.41;2060088;28;2181;-77
2024/04/01 00:05:35;;;;;;;;;;;;;;;19.91;51.47;99224.22;2062020;28;1725;-77
2024/04/01 00:06:36;;;;;;;;;;;;;;;19.93;51.56;99223.53;2057767;28;2119;-77
2024/04/01 00:07:36;;;;;;;;;;;;;;;19.92;51.58;99231.41;2052009;28;2076;-77
2024/04/01 00:08:36;;;;;;;;;;;;;;;19.92;51.45;99236.44;2053121;28;2131;-77
2024/04/01 00:09:37;;;;;;;;;;;;;;;19.91;51.43;99232.84;2053060;28;1968;-77
2024/04/01 00:10:38;;;;;;;;;;;;;;;19.91;51.46;99229.97;2053788;28;1742;-77
2024/04/01 00:11:38;;;;;;;;;;;;;;;19.91;51.45;99229.97;2052490;28;1788;-76
2024/04/01 00:12:38;;;;;;;;;;;;;;;19.92;51.56;99227.81;2052203;28;1802;-77
2024/04/01 00:13:39;;;;;;;;;;;;;;;19.91;51.74;99217.75;2058938;28;2303;-77
2024/04/01 00:14:39;;;;;;;;;;;;;;;19.90;51.56;99217.00;2057898;28;1956;-77
2024/04/01 00:15:40;;;;;;;;;;;;;;;19.89;51.49;99221.31;2059450;28;2380;-77
2024/04/01 00:16:42;;;;;;;;;;;;;;;19.90;51.50;99222.75;2051556;28;2108;-77
2024/04/01 00:17:43;;;;;;;;;;;;;;;19.89;51.68;99209.81;2061937;28;1592;-77
2024/04/01 00:18:43;;;;;;;;;;;;;;;19.89;51.52;99201.19;2060610;28;1647;-77
2024/04/01 00:19:44;;;;;;;;;;;;;;;19.89;51.49;99198.31;2059952;28;2370;-77
2024/04/01 00:20:54;;;;;;;;;;;;;;;19.89;51.48;99195.47;2060556;28;1662;-77
2024/04/01 00:21:54;;;;;;;;;;;;;;;19.90;51.36;99199.06;2054081;28;2445;-77
2024/04/01 00:22:54;;;;;;;;;;;;;;;19.88;51.52;99194.72;2052263;28;2139;-77
2024/04/01 00:23:56;;;;;;;;;;;;;;;19.90;51.58;99199.06;2052851;28;2115;-77
2024/04/01 00:24:56;;;;;;;;;;;;;;;19.89;51.38;99192.59;2061258;28;2194;-77
2024/04/01 00:25:57;;;;;;;;;;;;;;;19.88;51.70;99203.34;2058014;28;2630;-77
2024/04/01 00:26:57;;;;;;;;;;;;;;;19.89;51.44;99204.06;2062277;28;1686;-77
2024/04/01 00:27:58;;;;;;;;;;;;;;;19.89;51.76;99204.06;2053600;28;1577;-77
2024/04/01 00:28:58;;;;;;;;;;;;;;;19.89;51.53;99192.59;2052498;28;1989;-77
2024/04/01 00:29:58;;;;;;;;;;;;;;;19.89;51.66;99186.84;2052976;28;2100;-76
2024/04/01 00:30:59;;;;;;;;;;;;;;;19.87;51.44;99178.19;2057942;28;6170;-77
2024/04/01 00:31:59;;;;;;;;;;;;;;;19.87;51.57;99184.66;2058705;28;2182;-76
2024/04/01 00:33:00;;;;;;;;;;;;;;;19.89;51.65;99175.34;2060937;28;2072;-77
2024/04/01 00:34:00;;;;;;;;;;;;;;;19.88;51.53;99174.63;2067897;28;2701;-77
2024/04/01 00:35:00;;;;;;;;;;;;;;;19.88;51.50;99176.75;2068462;28;1860;-77
2024/04/01 00:36:01;;;;;;;;;;;;;;;19.89;51.40;99166.72;2068129;28;1655;-77
2024/04/01 00:37:01;;;;;;;;;;;;;;;19.88;51.51;99168.13;2059803;28;2126;-77
2024/04/01 00:38:02;;;;;;;;;;;;;;;19.88;51.40;99153.78;2065395;28;2118;-77
2024/04/01 00:39:04;;;;;;;;;;;;;;;19.87;51.54;99166.69;2068955;28;1656;-77
2024/04/01 00:40:04;;;;;;;;;;;;;;;19.86;51.47;99162.38;2068929;28;2020;-76
2024/04/01 00:41:05;;;;;;;;;;;;;;;19.85;51.54;99161.63;2060196;28;1583;-77
2024/04/01 00:42:05;;;;;;;;;;;;;;;19.86;51.38;99163.09;2058623;28;2120;-77
2024/04/01 00:43:06;;;;;;;;;;;;;;;19.85;51.61;99150.13;2068584;28;2519;-77
2024/04/01 00:44:06;;;;;;;;;;;;;;;19.86;51.68;99143.00;2060476;28;2266;-77
2024/04/01 00:45:09;;;;;;;;;;;;;;;19.86;51.63;99148.72;2061438;28;2151;-77
2024/04/01 00:46:09;;;;;;;;;;;;;;;19.85;51.34;99140.78;2061472;28;2146;-77
2024/04/01 00:47:10;;;;;;;;;;;;;;;19.85;51.56;99135.78;2069540;28;1719;-76
2024/04/01 00:48:12;;;;;;;;;;;;;;;19.85;51.46;99135.78;2068174;28;1829;-77
2024/04/01 00:49:12;;;;;;;;;;;;;;;19.85;51.49;99129.31;2060521;28;1902;-77
2024/04/01 00:50:13;;;;;;;;;;;;;;;19.85;51.61;99130.03;2060230;28;1649;-77
2024/04/01 00:51:13;;;;;;;;;;;;;;;19.85;51.35;99130.03;2069131;28;2643;-77
2024/04/01 00:52:15;;;;;;;;;;;;;;;19.86;51.46;99133.66;2056632;28;2229;-76
2024/04/01 00:53:17;;;;;;;;;;;;;;;19.86;51.46;99136.53;2063177;28;1978;-77
2024/04/01 00:54:18;;;;;;;;;;;;;;;19.84;51.62;99134.31;2056925;28;2048;-77
2024/04/01 00:55:19;;;;;;;;;;;;;;;19.86;51.64;99130.78;2068700;28;1862;-77
2024/04/01 00:56:22;;;;;;;;;;;;;;;19.85;51.61;99123.56;2061823;28;2241;-77
2024/04/01 00:57:23;;;;;;;;;;;;;;;19.86;51.44;99130.78;2061254;28;1794;-77
2024/04/01 00:58:23;;;;;;;;;;;;;;;19.85;51.48;99141.50;2052993;28;2283;-77
2024/04/01 00:59:25;;;;;;;;;;;;;;;19.85;51.48;99135.78;2054442;28;1697;-77
2024/04/01 01:00:26;;;;;;;;;;;;;;;19.85;51.34;99143.66;2058011;28;6213;-76
2024/04/01 01:01:27;;;;;;;;;;;;;;;19.85;51.56;99143.66;2057612;28;1705;-77
2024/04/01 01:02:29;;;;;;;;;;;;;;;19.83;51.42;99138.59;2058329;28;2209;-77
2024/04/01 01:03:29;;;;;;;;;;;;;;;19.84;51.44;99145.09;2060395;28;2162;-77
2024/04/01 01:04:30;;;;;;;;;;;;;;;19.84;51.54;99150.84;2061739;28;1760;-77
2024/04/01 01:05:32;;;;;;;;;;;;;;;19.84;51.59;99145.09;2059822;28;2202;-77
2024/04/01 01:06:33;;;;;;;;;;;;;;;19.84;51.51;99145.09;2060823;28;1736;-77
2024/04/01 01:07:34;;;;;;;;;;;;;;;19.85;51.50;99149.41;2060578;28;2266;-77
2024/04/01 01:08:35;;;;;;;;;;;;;;;19.84;51.53;99151.56;2059291;28;2238;-77
2024/04/01 01:09:36;;;;;;;;;;;;;;;19.84;51.51;99150.84;2059690;28;2029;-77
2024/04/01 01:10:37;;;;;;;;;;;;;;;19.84;51.49;99150.84;2062677;28;2405;-77
2024/04/01 01:11:38;;;;;;;;;;;;;;;19.84;51.56;99156.56;2059615;28;2104;-77
2024/04/01 01:12:39;;;;;;;;;;;;;;;19.83;51.45;99155.81;2061528;28;2079;-76
2024/04/01 01:13:40;;;;;;;;;;;;;;;19.82;51.47;99147.91;2059263;28;2056;-77
2024/04/01 01:14:40;;;;;;;;;;;;;;;19.82;51.45;99157.25;2058885;28;2552;-76
2024/04/01 01:15:41;;;;;;;;;;;;;;;19.83;51.45;99155.09;2067757;28;2170;-77
2024/04/01 01:16:41;;;;;;;;;;;;;;;19.83;51.48;99155.09;2069316;28;1780;-77
2024/04/01 01:17:42;;;;;;;;;;;;;;;19.83;51.58;99155.81;2057689;28;1937;-77
2024/04/01 01:18:43;;;;;;;;;;;;;;;19.83;51.46;99155.09;2065483;28;2236;-77
2024/04/01 01:19:43;;;;;;;;;;;;;;;19.84;51.61;99150.84;2068046;28;2730;-76
2024/04/01 01:20:43;;;;;;;;;;;;;;;19.83;51.45;99152.22;2056396;28;1940;-76
2024/04/01 01:21:44;;;;;;;;;;;;;;;19.83;51.64;99155.09;2061257;28;2080;-77
2024/04/01 01:22:44;;;;;;;;;;;;;;;19.83;51.55;99155.81;2059126;28;2135;-77
2024/04/01 01:23:45;;;;;;;;;;;;;;;19.83;51.59;99160.84;2060863;28;2222;-77
2024/04/01 01:24:45;;;;;;;;;;;;;;;19.83;51.53;99160.84;2061644;28;2008;-77
2024/04/01 01:25:45;;;;;;;;;;;;;;;19.84;51.37;99162.31;2060030;28;1661;-77
2024/04/01 01:26:46;;;;;;;;;;;;;;;19.83;51.37;99155.81;2058017;28;2062;-76
2024/04/01 01:27:46;;;;;;;;;;;;;;;19.84;51.42;99159.44;2058425;28;2116;-76
2024/04/01 01:28:47;;;;;;;;;;;;;;;19.84;51.41;99156.56;2058575;28;2201;-77
2024/04/01 01:29:48;;;;;;;;;;;;;;;19.83;51.31;99157.97;2059332;28;2150;-77
2024/04/01 01:30:48;;;;;;;;;;;;;;;19.84;51.31;99156.56;2058528;28;6188;-77
2024/04/01 01:31:49;;;;;;;;;;;;;;;19.83;51.47;99158.69;2066658;28;2004;-77
2024/04/01 01:32:53;;;;;;;;;;;;;;;19.82;51.38;99159.41;2060443;28;2085;-77
2024/04/01 01:33:54;;;;;;;;;;;;;;;19.83;51.42;99160.84;2061319;28;1944;-77
2024/04/01 01:34:54;;;;;;;;;;;;;;;19.82;51.47;99150.78;2059751;28;2255;-77
2024/04/01 01:35:55;;;;;;;;;;;;;;;19.82;51.40;99145.03;2068453;28;2507;-77
2024/04/01 01:36:55;;;;;;;;;;;;;;;19.81;51.38;99146.44;2060907;28;1689;-76
2024/04/01 01:37:56;;;;;;;;;;;;;;;19.82;51.31;99147.91;2059763;28;2423;-76
2024/04/01 01:38:56;;;;;;;;;;;;;;;19.81;51.34;99140.69;2059596;28;2166;-77
2024/04/01 01:39:56;;;;;;;;;;;;;;;19.82;51.40;99142.16;2061221;28;1684;-77
2024/04/01 01:40:57;;;;;;;;;;;;;;;19.83;51.28;99140.75;2059677;28;2052;-77
2024/04/01 01:41:57;;;;;;;;;;;;;;;19.82;51.49;99136.44;2059331;28;1949;-77
2024/04/01 01:42:58;;;;;;;;;;;;;;;19.81;51.38;99134.97;2061333;28;2099;-77
2024/04/01 01:43:59;;;;;;;;;;;;;;;19.81;51.33;99134.97;2059282;28;2411;-77
2024/04/01 01:44:59;;;;;;;;;;;;;;;19.81;51.42;99134.97;2067433;28;2531;-75
2024/04/01 01:46:00;;;;;;;;;;;;;;;19.81;51.31;99132.09;2067600;28;2165;-77
2024/04/01 01:47:00;;;;;;;;;;;;;;;19.80;51.51;99130.63;2057738;28;2197;-77
2024/04/01 01:48:00;;;;;;;;;;;;;;;19.79;51.29;99121.31;2061608;28;2241;-77
2024/04/01 01:49:01;;;;;;;;;;;;;;;19.80;51.30;99122.75;2060038;28;2251;-77
2024/04/01 01:50:02;;;;;;;;;;;;;;;19.81;51.35;99123.47;2068044;28;2121;-77
2024/04/01 01:51:02;;;;;;;;;;;;;;;19.81;51.32;99123.47;2066783;28;1950;-77
2024/04/01 01:52:03;;;;;;;;;;;;;;;19.80;51.41;99116.28;2066834;28;2172;-76
2024/04/01 01:53:03;;;;;;;;;;;;;;;19.79;51.29;99126.28;2067339;28;2093;-77
2024/04/01 01:54:04;;;;;;;;;;;;;;;19.79;51.36;99120.56;2058759;28;1980;-77
2024/04/01 01:55:05;;;;;;;;;;;;;;;19.79;51.37;99120.56;2059502;28;2626;-77
2024/04/01 01:56:05;;;;;;;;;;;;;;;19.79;51.36;99118.44;2060692;28;2111;-76
2024/04/01 01:57:06;;;;;;;;;;;;;;;19.79;51.08;99120.56;2057292;28;2596;-77
2024/04/01 01:58:06;;;;;;;;;;;;;;;19.79;51.25;99127.03;2059192;28;1629;-77
2024/04/01 01:59:07;;;;;;;;;;;;;;;19.79;51.30;99120.56;2059149;28;2175;-77
2024/04/01 02:00:13;;;;;;;;;;;;;;;19.80;51.22;99127.75;2065141;28;6390;-76
2024/04/01 02:01:13;;;;;;;;;;;;;;;19.80;51.14;99130.63;2061470;28;2488;-77
2024/04/01 02:02:14;;;;;;;;;;;;;;;19.78;51.27;99124.84;2060807;28;1840;-77
2024/04/01 02:03:14;;;;;;;;;;;;;;;19.79;51.31;99132.03;2060932;28;1649;-77
2024/04/01 02:04:15;;;;;;;;;;;;;;;19.78;51.34;99127.72;2067415;28;2023;-76
2024/04/01 02:05:15;;;;;;;;;;;;;;;19.79;51.26;99132.03;2066676;28;2224;-77
2024/04/01 02:06:16;;;;;;;;;;;;;;;19.78;51.52;99133.47;2060318;28;1787;-77
2024/04/01 02:07:16;;;;;;;;;;;;;;;19.78;51.25;99131.31;2067692;28;2596;-77
2024/04/01 02:08:16;;;;;;;;;;;;;;;19.77;51.46;99126.25;2070905;28;1684;-77
2024/04/01 02:09:17;;;;;;;;;;;;;;;19.77;51.27;99129.13;2059361;28;2621;-77
2024/04/01 02:10:21;;;;;;;;;;;;;;;19.74;51.28;99124.75;2068757;28;2225;-77
2024/04/01 02:11:22;;;;;;;;;;;;;;;19.78;51.30;99121.97;2062828;28;1656;-77
2024/04/01 02:12:22;;;;;;;;;;;;;;;19.78;51.35;99121.97;2061852;28;1728;-77
2024/04/01 02:13:23;;;;;;;;;;;;;;;19.77;51.15;99129.88;2061770;28;1756;-76
2024/04/01 02:14:23;;;;;;;;;;;;;;;19.77;51.29;99127.00;2060174;28;2074;-78
2024/04/01 02:15:24;;;;;;;;;;;;;;;19.76;51.18;99116.91;2060782;28;2464;-77
2024/04/01 02:16:24;;;;;;;;;;;;;;;19.77;51.22;99123.38;2061517;28;2384;-77
2024/04/01 02:17:25;;;;;;;;;;;;;;;19.77;51.29;99114.75;2069477;28;2069;-77
2024/04/01 02:18:25;;;;;;;;;;;;;;;19.75;51.25;99120.50;2070574;28;1663;-77
2024/04/01 02:19:25;;;;;;;;;;;;;;;19.77;51.24;99123.38;2060885;28;2052;-77
2024/04/01 02:20:26;;;;;;;;;;;;;;;19.75;51.26;99115.47;2061448;28;2579;-77
2024/04/01 02:21:26;;;;;;;;;;;;;;;19.75;51.37;99112.59;2061967;28;2257;-77
2024/04/01 02:22:27;;;;;;;;;;;;;;;19.76;51.15;99121.94;2061985;28;2052;-77
2024/04/01 02:23:34;;;;;;;;;;;;;;;19.76;51.24;99121.94;2069665;28;1676;-77
2024/04/01 02:24:34;;;;;;;;;;;;;;;19.76;51.38;99121.94;2070060;28;2110;-77
2024/04/01 02:25:35;;;;;;;;;;;;;;;19.75;51.28;99114.75;2070009;28;1750;-77
2024/04/01 02:26:35;;;;;;;;;;;;;;;19.76;51.25;99116.19;2077525;28;2304;-77
2024/04/01 02:27:36;;;;;;;;;;;;;;;19.75;51.34;99114.75;2068574;28;2234;-77
2024/04/01 02:28:36;;;;;;;;;;;;;;;19.75;51.43;99109.00;2061256;28;1903;-77
2024/04/01 02:29:37;;;;;;;;;;;;;;;19.75;51.29;99109.00;2060039;28;2336;-76
2024/04/01 02:30:37;;;;;;;;;;;;;;;19.75;51.28;99114.75;2061785;28;6173;-77
2024/04/01 02:31:37;;;;;;;;;;;;;;;19.75;51.18;99103.25;2062049;28;1673;-77
2024/04/01 02:32:38;;;;;;;;;;;;;;;19.74;51.17;99102.50;2069704;28;1644;-77
2024/04/01 02:33:38;;;;;;;;;;;;;;;19.76;51.16;99107.56;2069529;28;1807;-77
2024/04/01 02:34:39;;;;;;;;;;;;;;;19.75;51.18;99109.00;2059433;28;2516;-77
2024/04/01 02:35:41;;;;;;;;;;;;;;;19.74;51.32;99116.13;2061985;28;1750;-77
2024/04/01 02:36:41;;;;;;;;;;;;;;;19.74;51.23;99107.53;2060086;28;2484;-77
2024/04/01 02:37:42;;;;;;;;;;;;;;;19.75;51.27;99117.63;2069441;28;1652;-77
2024/04/01 02:38:48;;;;;;;;;;;;;;;19.74;51.28;99108.25;2065918;28;2385;-76
2024/04/01 02:39:48;;;;;;;;;;;;;;;19.73;51.26;99101.06;2070252;28;1627;-77
2024/04/01 02:40:49;;;;;;;;;;;;;;;19.74;51.39;99107.53;2061231;28;2673;-77
2024/04/01 02:41:50;;;;;;;;;;;;;;;19.73;51.30;99103.22;2061747;28;1610;-77
2024/04/01 02:42:51;;;;;;;;;;;;;;;19.73;51.24;99106.09;2059791;28;2706;-77
2024/04/01 02:43:51;;;;;;;;;;;;;;;19.72;51.21;99105.34;2060281;28;2356;-78
2024/04/01 02:44:52;;;;;;;;;;;;;;;19.73;51.29;99106.09;2061290;28;2469;-77
2024/04/01 02:45:52;;;;;;;;;;;;;;;19.74;51.25;99110.41;2062602;28;2194;-77
2024/04/01 02:46:53;;;;;;;;;;;;;;;19.74;51.17;99110.41;2062542;28;2259;-76
2024/04/01 02:47:54;;;;;;;;;;;;;;;19.74;51.17;99107.53;2062225;28;1680;-77
2024/04/01 02:48:54;;;;;;;;;;;;;;;19.75;51.08;99103.97;2060898;28;2019;-77
2024/04/01 02:49:54;;;;;;;;;;;;;;;19.75;51.13;99103.97;2061856;28;2265;-77
2024/04/01 02:50:55;;;;;;;;;;;;;;;19.77;51.23;99103.28;2070450;28;2251;-77
2024/04/01 02:51:55;;;;;;;;;;;;;;;19.78;51.16;99107.63;2068580;28;2440;-77
2024/04/01 02:52:57;;;;;;;;;;;;;;;19.77;51.13;99106.91;2060363;28;2198;-77
2024/04/01 02:53:58;;;;;;;;;;;;;;;19.79;51.11;99106.19;2062977;28;2213;-77
2024/04/01 02:54:58;;;;;;;;;;;;;;;19.78;51.07;99102.59;2060026;28;2082;-77
2024/04/01 02:55:59;;;;;;;;;;;;;;;19.80;51.09;99113.41;2060740;28;2186;-77
2024/04/01 02:56:59;;;;;;;;;;;;;;;19.80;51.03;99107.66;2061633;28;1952;-77
2024/04/01 02:58:00;;;;;;;;;;;;;;;19.81;51.02;99109.09;2062444;28;1730;-77
2024/04/01 02:59:04;;;;;;;;;;;;;;;19.81;51.10;99107.00;2061519;28;1734;-77
2024/04/01 03:00:04;;;;;;;;;;;;;;;19.82;50.99;99101.97;2068871;28;6283;-77
2024/04/01 03:01:05;;;;;;;;;;;;;;;19.82;50.89;99101.97;2061351;28;2172;-77
2024/04/01 03:02:08;;;;;;;;;;;;;;;19.82;50.92;99110.56;2061206;28;2138;-77
2024/04/01 03:03:08;;;;;;;;;;;;;;;19.82;50.96;99101.97;2062284;28;2028;-76
2024/04/01 03:04:08;;;;;;;;;;;;;;;19.84;50.89;99107.75;2069258;28;2063;-76
2024/04/01 03:05:09;;;;;;;;;;;;;;;19.84;50.87;99116.38;2067619;28;2189;-77
2024/04/01 03:06:09;;;;;;;;;;;;;;;19.85;50.88;99112.06;2061592;28;2262;-77
2024/04/01 03:07:10;;;;;;;;;;;;;;;19.85;50.71;99112.78;2061720;28;2238;-76
2024/04/01 03:08:11;;;;;;;;;;;;;;;19.86;50.64;99102.06;2063291;28;1640;-77
2024/04/01 03:09:11;;;;;;;;;;;;;;;19.86;50.64;99107.78;2061516;28;2111;-77
2024/04/01 03:10:12;;;;;;;;;;;;;;;19.86;50.61;99096.31;2060435;28;1716;-77
2024/04/01 03:11:13;;;;;;;;;;;;;;;19.86;50.63;99102.06;2061759;28;1673;-77
2024/04/01 03:12:14;;;;;;;;;;;;;;;19.87;50.87;99097.75;2058695;28;2190;-77
2024/04/01 03:13:14;;;;;;;;;;;;;;;19.87;50.64;99094.88;2061328;28;1633;-77
2024/04/01 03:14:14;;;;;;;;;;;;;;;19.87;50.53;99100.63;2067131;28;1990;-76
2024/04/01 03:15:16;;;;;;;;;;;;;;;19.88;50.71;99081.97;2068854;28;2197;-77
2024/04/01 03:16:18;;;;;;;;;;;;;;;19.87;50.72;99092.00;2060913;28;1654;-77
2024/04/01 03:17:19;;;;;;;;;;;;;;;19.87;50.67;99086.25;2057657;28;2103;-77
2024/04/01 03:18:20;;;;;;;;;;;;;;;19.86;50.74;99085.53;2057986;28;2451;-76
2024/04/01 03:19:21;;;;;;;;;;;;;;;19.87;50.81;99089.84;2060261;28;2633;-77
2024/04/01 03:20:22;;;;;;;;;;;;;;;19.86;50.82;99087.69;2069561;28;1972;-78
2024/04/01 03:21:23;;;;;;;;;;;;;;;19.87;50.68;99083.38;2068503;28;1987;-77
2024/04/01 03:22:24;;;;;;;;;;;;;;;19.86;50.67;99082.66;2061919;28;2189;-76
2024/04/01 03:23:25;;;;;;;;;;;;;;;19.87;50.72;99083.38;2068548;28;1736;-77
2024/04/01 03:24:25;;;;;;;;;;;;;;;19.86;50.85;99079.78;2060199;28;2280;-77
2024/04/01 03:25:26;;;;;;;;;;;;;;;19.87;50.84;99074.78;2067059;28;2231;-77
2024/04/01 03:26:26;;;;;;;;;;;;;;;19.87;50.99;99080.53;2058251;28;2068;-77
2024/04/01 03:27:26;;;;;;;;;;;;;;;19.87;50.79;99083.38;2052024;28;2337;-77
2024/04/01 03:28:27;;;;;;;;;;;;;;;19.87;51.07;99080.53;2070124;28;1609;-76
2024/04/01 03:29:27;;;;;;;;;;;;;;;19.87;51.08;99074.78;2067218;28;2316;-77
2024/04/01 03:30:28;;;;;;;;;;;;;;;19.86;51.08;99074.06;2057590;28;6306;-77
2024/04/01 03:31:28;;;;;;;;;;;;;;;19.87;51.13;99074.78;2059885;28;2134;-77
2024/04/01 03:32:28;;;;;;;;;;;;;;;19.86;51.18;99079.06;2066037;28;2196;-79
2024/04/01 03:33:29;;;;;;;;;;;;;;;19.86;51.07;99067.59;2068465;28;2090;-77
2024/04/01 03:34:30;;;;;;;;;;;;;;;19.87;51.12;99071.91;2061893;28;2613;-73
2024/04/01 03:35:30;;;;;;;;;;;;;;;19.88;50.90;99067.59;2061797;28;2043;-76
2024/04/01 03:36:30;;;;;;;;;;;;;;;19.85;50.96;99068.97;2065930;28;2230;-76
2024/04/01 03:37:31;;;;;;;;;;;;;;;19.82;50.92;99062.47;2066893;28;2707;-76
2024/04/01 03:38:31;;;;;;;;;;;;;;;19.83;50.93;99066.06;2058496;28;1795;-76
2024/04/01 03:39:32;;;;;;;;;;;;;;;19.83;50.84;99063.19;2058527;28;2505;-76
2024/04/01 03:40:36;;;;;;;;;;;;;;;19.84;50.86;99056.06;2057655;28;2551;-76
2024/04/01 03:41:36;;;;;;;;;;;;;;;19.83;50.68;99055.31;2067214;28;1964;-77
2024/04/01 03:42:37;;;;;;;;;;;;;;;19.84;50.86;99061.78;2065675;28;2586;-76
2024/04/01 03:43:37;;;;;;;;;;;;;;;19.84;50.88;99056.78;2059022;28;2560;-76
2024/04/01 03:44:38;;;;;;;;;;;;;;;19.85;50.77;99055.34;2058798;28;2536;-76
2024/04/01 03:45:38;;;;;;;;;;;;;;;19.86;50.57;99053.22;2059196;28;2524;-76
2024/04/01 03:46:39;;;;;;;;;;;;;;;19.86;50.51;99053.94;2065578;28;2305;-76
2024/04/01 03:47:39;;;;;;;;;;;;;;;19.87;50.64;99046.78;2065099;28;2158;-76
2024/04/01 03:48:39;;;;;;;;;;;;;;;19.88;50.52;99045.38;2057526;28;2147;-76
2024/04/01 03:49:40;;;;;;;;;;;;;;;19.87;50.61;99046.06;2059224;28;2162;-76
2024/04/01 03:50:41;;;;;;;;;;;;;;;19.87;50.53;99043.19;2059292;28;2055;-76
2024/04/01 03:51:42;;;;;;;;;;;;;;;19.87;50.78;99040.31;2060140;28;2331;-76
2024/04/01 03:52:42;;;;;;;;;;;;;;;19.88;50.81;99041.75;2060338;28;2460;-76
2024/04/01 03:53:42;;;;;;;;;;;;;;;19.87;50.67;99041.03;2065655;28;2027;-76
2024/04/01 03:54:43;;;;;;;;;;;;;;;19.88;50.75;99033.13;2058617;28;1847;-77
2024/04/01 03:55:43;;;;;;;;;;;;;;;19.88;50.87;99024.53;2058801;28;2325;-76
2024/04/01 03:56:43;;;;;;;;;;;;;;;19.88;50.67;99025.28;2059639;28;2347;-76
2024/04/01 03:57:44;;;;;;;;;;;;;;;19.87;50.63;99015.19;2061356;28;2040;-76
2024/04/01 03:58:45;;;;;;;;;;;;;;;19.88;50.69;99024.53;2058689;28;2597;-76
2024/04/01 03:59:45;;;;;;;;;;;;;;;19.88;50.57;99022.41;2067393;28;1778;-76
2024/04/01 04:00:46;;;;;;;;;;;;;;;19.89;50.54;99014.50;2065261;28;6063;-76
2024/04/01 04:01:46;;;;;;;;;;;;;;;19.89;50.48;99020.25;2059368;28;2066;-76
2024/04/01 04:02:46;;;;;;;;;;;;;;;19.89;50.52;99020.25;2058840;28;2457;-76
2024/04/01 04:03:47;;;;;;;;;;;;;;;19.90;50.56;99018.09;2058079;28;2135;-76
2024/04/01 04:04:47;;;;;;;;;;;;;;;19.91;50.73;99011.66;2060123;28;2107;-76
2024/04/01 04:05:48;;;;;;;;;;;;;;;19.90;50.57;99010.19;2058918;28;2592;-76
2024/04/01 04:06:48;;;;;;;;;;;;;;;19.91;50.57;99014.53;2059170;28;2631;-76
2024/04/01 04:07:48;;;;;;;;;;;;;;;19.92;50.64;99000.91;2059709;28;2119;-76
2024/04/01 04:08:49;;;;;;;;;;;;;;;19.93;50.67;99005.22;2064763;28;2527;-76
2024/04/01 04:09:51;;;;;;;;;;;;;;;19.93;50.72;98994.47;2057318;28;2131;-76
2024/04/01 04:10:51;;;;;;;;;;;;;;;19.93;50.69;98997.34;2058589;28;2448;-76
2024/04/01 04:11:52;;;;;;;;;;;;;;;19.93;50.72;99000.22;2058905;28;2629;-76
2024/04/01 04:12:52;;;;;;;;;;;;;;;19.93;50.62;98994.47;2066070;28;2058;-76
2024/04/01 04:13:53;;;;;;;;;;;;;;;19.93;50.99;98997.34;2064307;28;2237;-76
2024/04/01 04:14:53;;;;;;;;;;;;;;;19.94;50.81;98998.78;2058874;28;1869;-76
2024/04/01 04:15:53;;;;;;;;;;;;;;;19.94;50.82;99000.94;2063110;28;1694;-76
2024/04/01 04:16:54;;;;;;;;;;;;;;;19.94;50.82;98992.31;2067978;28;2343;-76
2024/04/01 04:17:54;;;;;;;;;;;;;;;19.95;50.70;98993.75;2057508;28;2533;-76
2024/04/01 04:18:55;;;;;;;;;;;;;;;19.94;51.01;98989.44;2059038;28;1877;-76
2024/04/01 04:19:56;;;;;;;;;;;;;;;19.94;50.80;98995.91;2066897;28;2087;-76
2024/04/01 04:20:56;;;;;;;;;;;;;;;19.94;50.79;98995.19;2066678;28;2559;-76
2024/04/01 04:21:56;;;;;;;;;;;;;;;19.94;50.80;98990.19;2060099;28;2245;-76
2024/04/01 04:22:57;;;;;;;;;;;;;;;19.94;50.79;98987.31;2067261;28;2129;-76
2024/04/01 04:23:57;;;;;;;;;;;;;;;19.94;50.84;98987.31;2065609;28;2201;-76
2024/04/01 04:24:58;;;;;;;;;;;;;;;19.95;51.01;98988.03;2057073;28;2646;-76
2024/04/01 04:25:58;;;;;;;;;;;;;;;19.94;50.84;98986.56;2059203;28;2164;-76
2024/04/01 04:26:58;;;;;;;;;;;;;;;19.94;50.90;98983.72;2066479;28;2545;-76
2024/04/01 04:27:59;;;;;;;;;;;;;;;19.94;50.88;98990.19;2064985;28;2149;-77
2024/04/01 04:29:01;;;;;;;;;;;;;;;19.94;50.86;98987.31;2058243;28;2497;-76
2024/04/01 04:30:02;;;;;;;;;;;;;;;19.93;50.85;98991.59;2058730;28;6133;-75
2024/04/01 04:31:02;;;;;;;;;;;;;;;19.94;50.96;98993.03;2059398;28;2651;-76
2024/04/01 04:32:09;;;;;;;;;;;;;;;19.93;50.91;98993.72;2057197;28;2016;-77
2024/04/01 04:33:09;;;;;;;;;;;;;;;19.93;50.91;98994.47;2055410;28;2218;-76
2024/04/01 04:34:10;;;;;;;;;;;;;;;19.93;50.92;98994.47;2058781;28;2471;-76
2024/04/01 04:35:13;;;;;;;;;;;;;;;19.93;50.94;98996.59;2059765;28;2535;-76
2024/04/01 04:36:13;;;;;;;;;;;;;;;19.94;50.98;98993.03;2066005;28;2302;-75
2024/04/01 04:37:15;;;;;;;;;;;;;;;19.93;51.01;99000.22;2064682;28;2278;-76
2024/04/01 04:38:18;;;;;;;;;;;;;;;19.93;50.92;99003.09;2057144;28;2272;-76
2024/04/01 04:39:24;;;;;;;;;;;;;;;19.94;51.11;98987.31;2060197;28;2064;-76
2024/04/01 04:40:24;;;;;;;;;;;;;;;19.94;50.84;98987.31;2057666;28;2064;-76
2024/04/01 04:41:25;;;;;;;;;;;;;;;19.94;50.93;98998.78;2056785;28;2500;-76
2024/04/01 04:42:25;;;;;;;;;;;;;;;19.95;50.97;98988.78;2057713;28;2134;-76
2024/04/01 04:43:25;;;;;;;;;;;;;;;19.95;50.97;99000.25;2056829;28;2146;-77
2024/04/01 04:44:26;;;;;;;;;;;;;;;19.96;51.00;98993.09;2058399;28;2480;-76
2024/04/01 04:45:26;;;;;;;;;;;;;;;19.97;50.93;99000.28;2062548;28;2261;-76
2024/04/01 04:46:27;;;;;;;;;;;;;;;19.97;51.03;99008.91;2061788;28;2147;-76
2024/04/01 04:47:27;;;;;;;;;;;;;;;19.96;50.95;99007.44;2061192;28;1676;-76
2024/04/01 04:48:28;;;;;;;;;;;;;;;19.98;51.21;99001.03;2061532;28;1651;-76
2024/04/01 04:49:29;;;;;;;;;;;;;;;19.97;51.06;99003.16;2059994;28;1998;-76
2024/04/01 04:50:29;;;;;;;;;;;;;;;19.98;51.21;98998.88;2056954;28;2104;-65
2024/04/01 04:51:29;;;;;;;;;;;;;;;19.98;51.13;98998.88;2065740;28;1973;-66
2024/04/01 04:52:30;;;;;;;;;;;;;;;19.99;51.41;98999.59;2057183;28;2291;-73
2024/04/01 04:53:30;;;;;;;;;;;;;;;19.99;51.15;99000.31;2055355;28;2207;-76
2024/04/01 04:54:31;;;;;;;;;;;;;;;19.99;51.26;98993.84;2068339;28;1687;-72
2024/04/01 04:55:31;;;;;;;;;;;;;;;19.98;51.37;99004.63;2069457;28;1660;-72
2024/04/01 04:56:31;;;;;;;;;;;;;;;19.98;51.22;98998.88;2061360;28;1752;-72
2024/04/01 04:57:32;;;;;;;;;;;;;;;19.99;51.25;98994.56;2060911;28;1735;-72
2024/04/01 04:58:32;;;;;;;;;;;;;;;19.99;51.38;98996.72;2057933;28;2437;-72
2024/04/01 04:59:33;;;;;;;;;;;;;;;19.98;51.38;98996.00;2056991;28;2095;-72
2024/04/01 05:00:34;;;;;;;;;;;;;;;19.98;51.25;98998.16;2057050;28;6192;-72
2024/04/01 05:01:34;;;;;;;;;;;;;;;19.99;51.33;98994.56;2056314;28;2268;-72
2024/04/01 05:02:35;;;;;;;;;;;;;;;19.97;51.23;98997.41;2057545;28;2432;-71
2024/04/01 05:03:35;;;;;;;;;;;;;;;19.98;51.38;98998.16;2057697;28;1895;-72
2024/04/01 05:04:36;;;;;;;;;;;;;;;19.98;51.47;99001.75;2058548;28;2326;-72
2024/04/01 05:05:36;;;;;;;;;;;;;;;19.98;51.34;98998.88;2066031;28;2086;-73
2024/04/01 05:06:36;;;;;;;;;;;;;;;19.98;51.25;98992.41;2059480;28;2465;-71
2024/04/01 05:07:37;;;;;;;;;;;;;;;19.98;51.18;98989.53;2055101;28;2245;-72
2024/04/01 05:08:37;;;;;;;;;;;;;;;19.97;51.23;98983.03;2056731;28;2436;-72
2024/04/01 05:09:38;;;;;;;;;;;;;;;19.98;51.43;98980.91;2060239;28;2126;-72
2024/04/01 05:10:39;;;;;;;;;;;;;;;19.97;51.24;98974.41;2058127;28;2630;-72
2024/04/01 05:11:39;;;;;;;;;;;;;;;19.97;51.18;98974.41;2056451;28;2073;-72
2024/04/01 05:12:40;;;;;;;;;;;;;;;19.98;51.17;98981.63;2057008;28;2495;-70
2024/04/01 05:13:40;;;;;;;;;;;;;;;19.97;51.22;98977.28;2066287;28;2991;-72
2024/04/01 05:14:41;;;;;;;;;;;;;;;19.98;51.39;98975.88;2065267;28;2028;-72
2024/04/01 05:15:41;;;;;;;;;;;;;;;19.98;51.23;98969.44;2064405;28;2458;-72
2024/04/01 05:16:41;;;;;;;;;;;;;;;19.98;51.37;98963.69;2065417;28;2117;-72
2024/04/01 05:17:42;;;;;;;;;;;;;;;19.99;51.21;98970.88;2061741;28;2441;-72
2024/04/01 05:18:42;;;;;;;;;;;;;;;19.98;51.40;98978.75;2055766;28;1959;-72
2024/04/01 05:19:43;;;;;;;;;;;;;;;19.99;51.44;98971.59;2065302;28;2390;-71
2024/04/01 05:20:43;;;;;;;;;;;;;;;19.99;51.40;98965.84;2058640;28;2202;-72